Latest Coastal Weather Observations for Weipa

IDQ60701

Issued at 4:32 pm EST Tuesday 25 April 2017 (issued every 10 minutes, with the page automatically refreshed every 10 minutes)

About coastal observations | Map of coastal stations | Coastal observations for QLD | Marine services | Other Formats
Station Details ID: 027045 Name: WEIPA AERO Lat: -12.68 Lon: 141.92 Height: 17.96 m
Data from the previous 72 hours. | See also: Recent months at Weipa
Date/Time
EST
Temp
°C
Wind Pressure Rain since
9am
mm
Weather Cloud Vis
km
Sea
Height
m
Swell
Dir  Spd
kts
Gust
kts
hPa Trend Height
m
Period
s
Dir
25/04:30pm 29.1 E 7 12 1009.3 - 0.2 - Partly cloudy 10 - - - -
25/04:00pm 28.8 E 5 8 1009.1 - 0.2 - - 10 - - - -
25/03:30pm 28.6 E 7 13 1009.3 - 0.2 - Partly cloudy 10 - - - -
25/03:00pm 28.8 E 10 16 1009.1 - 0.2 - Cloudy 10 - - - -
25/02:30pm 29.4 E 10 14 1009.3 - 0.2 - Partly cloudy 10 - - - -
25/02:00pm 29.1 E 11 17 1009.8 - 0.2 - - 10 - - - -
25/01:30pm 29.0 E 10 17 1010.3 - 0.2 - Partly cloudy 10 - - - -
25/01:00pm 28.6 E 11 18 1011.0 - 0.2 - Partly cloudy 10 - - - -
25/12:30pm 28.9 E 11 15 1011.4 - 0.2 - Partly cloudy 10 - - - -
25/12:00pm 29.5 ESE 13 20 1011.4 - 0.2 - Mostly cloudy 10 - - - -
25/11:57am 29.5 ESE 12 20 1011.7 - 0.2 - Partly cloudy 10 - - - -
25/11:39am 27.4 ESE 14 19 1012.1 - 0.2 - Partly cloudy 6 - - - -
25/11:30am 28.1 ESE 13 20 1012.0 - 0.2 - Partly cloudy 10 - - - -
25/11:00am 28.7 ESE 16 23 1012.2 - 0.2 - Partly cloudy 10 - - - -
25/10:30am 28.1 E 11 16 1012.6 - 0.2 - Partly cloudy 10 - - - -
25/10:00am 27.1 E 9 13 1012.7 - 0.0 - Partly cloudy 10 - - - -
25/09:30am 26.7 ESE 11 16 1012.6 - 0.0 - Partly cloudy 10 - - - -
25/09:00am 26.6 ESE 11 17 1012.3 - 0.2 - Mostly cloudy 10 - - - -
25/08:30am 26.6 ESE 11 17 1012.2 - 0.2 - - 10 - - - -
25/08:00am 26.0 ESE 9 13 1011.6 - 0.2 - Partly cloudy 10 - - - -
25/07:30am 25.2 SE 8 10 1011.1 - 0.2 - Partly cloudy 10 - - - -
25/07:00am 24.9 SE 8 10 1010.8 - 0.2 - Partly cloudy 10 - - - -
25/06:30am 24.9 SE 7 10 1010.5 - 0.2 - Partly cloudy 10 - - - -
25/06:00am 24.8 SE 7 10 1010.1 - 0.2 - Partly cloudy 10 - - - -
25/05:30am 24.6 SE 6 10 1010.2 - 0.2 - Partly cloudy 10 - - - -
25/05:00am 24.5 ESE 6 9 1010.1 - 0.2 - Partly cloudy 10 - - - -
25/04:30am 24.2 SE 4 5 1009.9 - 0.2 - Partly cloudy 10 - - - -
25/04:00am 24.1 SE 5 7 1009.7 - 0.2 - - 10 - - - -
25/03:30am 24.6 ESE 9 12 1009.7 - 0.2 - - 10 - - - -
25/03:00am 24.9 ESE 7 15 1009.6 - 0.2 - Cloudy 10 - - - -
25/02:30am 24.7 SE 4 6 1010.0 - 0.2 - Partly cloudy 10 - - - -
25/02:00am 24.7 ESE 4 5 1010.4 - 0.2 - Partly cloudy 10 - - - -
25/01:30am 24.7 ESE 5 8 1010.8 - 0.2 - - 10 - - - -
25/01:00am 25.0 SE 6 10 1011.0 - 0.2 - - 10 - - - -
25/12:30am 25.1 SE 6 9 1011.4 - 0.2 - Partly cloudy 10 - - - -
25/12:00am 25.1 SE 6 8 1011.5 - 0.2 - Mostly clear 10 - - - -
 
Date/Time
EST
Temp
°C
Wind Pressure Rain since
9am
mm
Weather Cloud Vis
km
Sea
Height
m
Swell
Dir  Spd
kts
Gust
kts
hPa Trend Height
m
Period
s
Dir
24/11:30pm 25.3 ESE 7 10 1011.6 - 0.2 - - 10 - - - -
24/11:00pm 25.5 ESE 7 10 1011.7 - 0.2 - - 10 - - - -
24/10:30pm 25.5 SE 6 9 1011.8 - 0.2 - - 10 - - - -
24/10:00pm 25.9 SE 5 8 1011.9 - 0.2 - - 10 - - - -
24/09:30pm 26.1 SE 7 9 1012.1 - 0.2 - - 10 - - - -
24/09:00pm 26.3 SE 4 5 1012.0 - 0.2 - Cloudy 10 - - - -
24/08:30pm 26.4 ESE 6 8 1011.9 - 0.2 - - 10 - - - -
24/08:00pm 26.5 ESE 7 10 1011.2 - 0.2 - Partly cloudy 10 - - - -
24/07:30pm 26.4 ESE 5 8 1010.8 - 0.2 - - 10 - - - -
24/07:00pm 26.8 ESE 5 8 1010.5 - 0.2 - - 10 - - - -
24/06:30pm 27.3 ESE 9 14 1010.4 - 0.2 - - 10 - - - -
24/06:00pm 27.5 ESE 12 18 1009.9 - 0.2 - Mostly cloudy 10 - - - -
24/05:36pm 27.8 ESE 15 22 1009.8 - 0.2 - Cloudy 10 - - - -
24/05:30pm 27.7 E 5 9 1009.6 - 0.2 - Cloudy 10 - - - -
24/05:00pm 27.1 E 6 8 1009.3 - 0.2 - Partly cloudy 10 - - - -
24/04:58pm 27.2 E 6 8 1009.3 - 0.2 - Partly cloudy 10 - - - -
24/04:42pm 27.6 ESE 12 17 1009.1 - 0.2 - Partly cloudy 6 - - - -
24/04:30pm 30.5 E 10 14 1008.9 - 0.0 - Partly cloudy 10 - - - -
24/04:00pm 30.6 ESE 11 16 1009.1 - 0.0 - Partly cloudy 10 - - - -
24/03:30pm 29.8 ESE 9 12 1009.1 - 0.0 - - 10 - - - -
24/03:00pm 28.6 ESE 10 14 1009.2 - 0.0 - Cloudy 10 - - - -
24/02:30pm 30.2 SE 9 12 1009.3 - 0.0 - Partly cloudy 10 - - - -
24/02:00pm 30.3 SE 10 15 1009.4 - 0.0 - Partly cloudy 10 - - - -
24/01:30pm 29.7 SE 11 20 1009.6 - 0.0 - Partly cloudy 10 - - - -
24/01:00pm 31.0 ESE 14 21 1010.1 - 0.0 - - 10 - - - -
24/12:30pm 29.8 ESE 12 20 1010.9 - 0.0 - Partly cloudy 10 - - - -
24/12:00pm 30.2 ESE 14 20 1011.2 - 0.0 - Mostly clear 10 - - - -
24/11:30am 29.3 ESE 12 18 1011.8 - 0.0 - Partly cloudy 10 - - - -
24/11:00am 28.9 ESE 14 22 1012.0 - 0.0 - Partly cloudy 10 - - - -
24/10:30am 29.3 ESE 14 22 1012.3 - 0.0 - Partly cloudy 10 - - - -
24/10:00am 28.2 ESE 10 17 1012.5 - 0.0 - - 10 - - - -
24/09:30am 26.9 ESE 9 12 1012.2 - 0.0 - Partly cloudy 10 - - - -
24/09:00am 27.3 ESE 10 17 1011.8 - 0.0 - - 10 - - - -
24/08:30am 26.1 ESE 9 13 1012.0 - 0.0 - - 10 - - - -
24/08:00am 24.5 ESE 4 6 1011.9 - 0.0 - Partly cloudy 10 - - - -
24/07:30am 23.6 ESE 3 5 1011.6 - 0.0 - - 10 - - - -
24/07:00am 23.1 SE 5 6 1011.2 - 0.0 - - 10 - - - -
24/06:30am 23.2 ESE 4 5 1010.8 - 0.0 - - 10 - - - -
24/06:00am 23.3 ESE 5 7 1010.2 - 0.0 - - 10 - - - -
24/05:30am 23.3 SE 5 7 1009.9 - 0.0 - - 10 - - - -
24/05:00am 23.2 SE 4 5 1010.1 - 0.0 - - 10 - - - -
24/04:30am 23.2 ESE 4 6 1010.1 - 0.0 - - 10 - - - -
24/04:00am 23.4 ESE 4 6 1010.3 - 0.0 - - 10 - - - -
24/03:30am 23.6 ESE 5 7 1010.4 - 0.0 - - 10 - - - -
24/03:00am 23.8 SE 6 8 1010.2 - 0.0 - - 10 - - - -
24/02:30am 24.1 ESE 6 9 1010.8 - 0.0 - - 10 - - - -
24/02:00am 24.2 ESE 6 9 1010.9 - 0.0 - - 10 - - - -
24/01:30am 24.4 ESE 7 9 1011.3 - 0.0 - - 10 - - - -
24/01:00am 24.7 ESE 6 8 1011.8 - 0.0 - - 10 - - - -
24/12:30am 24.9 ESE 7 11 1012.0 - 0.0 - - 10 - - - -
24/12:00am 25.3 ESE 8 11 1012.0 - 0.0 - - 10 - - - -
 
Date/Time
EST
Temp
°C
Wind Pressure Rain since
9am
mm
Weather Cloud Vis
km
Sea
Height
m
Swell
Dir  Spd
kts
Gust
kts
hPa Trend Height
m
Period
s
Dir
23/11:30pm 25.6 ESE 9 12 1012.3 - 0.0 - - 10 - - - -
23/11:00pm 25.8 ESE 7 10 1012.3 - 0.0 - Partly cloudy 10 - - - -
23/10:30pm 25.4 ESE 5 9 1012.5 - 0.0 - - 10 - - - -
23/10:00pm 26.2 ESE 8 12 1012.4 - 0.0 - - 10 - - - -
23/09:30pm 26.2 ESE 8 12 1012.3 - 0.0 - Partly cloudy 10 - - - -
23/09:00pm 26.1 SE 5 8 1011.9 - 0.0 - Cloudy 10 - - - -
23/08:30pm 25.8 ESE 5 7 1012.0 - 0.0 - - 10 - - - -
23/08:00pm 25.7 ESE 5 7 1011.6 - 0.0 - Partly cloudy 10 - - - -
23/07:30pm 25.7 ESE 5 6 1011.1 - 0.0 - Partly cloudy 10 - - - -
23/07:00pm 25.9 SE 5 7 1010.6 - 0.0 - - 10 - - - -
23/06:30pm 26.3 ESE 7 10 1010.3 - 0.0 - - 10 - - - -
23/06:00pm 26.4 ESE 10 15 1009.9 - 0.0 - Cloudy 10 - - - -
23/05:38pm 26.2 ESE 13 20 1009.8 - 0.0 - Partly cloudy 10 - - - -
23/05:30pm 25.8 E 13 19 1009.8 - 0.0 - Partly cloudy 7 - - - -
23/05:22pm 25.9 E 17 27 1009.7 - 0.0 - Partly cloudy 6 - - - -
23/05:16pm 28.1 E 20 27 1009.3 - 0.0 - Partly cloudy 10 - - - -
23/05:00pm 29.3 SE 9 14 1009.0 - 0.0 - Partly cloudy 10 - - - -
23/04:30pm 29.1 ESE 14 21 1008.8 - 0.0 - Partly cloudy 10 - - - -
23/04:00pm 30.4 ESE 13 17 1008.7 - 0.0 - - 10 - - - -
23/03:30pm 30.3 ESE 14 20 1008.7 - 0.0 - Partly cloudy 10 - - - -
23/03:00pm 29.9 ESE 12 20 1008.8 - 0.0 - Cloudy 10 - - - -
23/02:30pm 31.0 ESE 12 18 1009.0 - 0.0 - Partly cloudy 10 - - - -
23/02:00pm 30.5 SSE 12 16 1009.1 - 0.0 - Partly cloudy 10 - - - -
23/01:30pm 31.2 ESE 15 21 1009.7 - 0.0 - Partly cloudy 10 - - - -
23/01:00pm 29.9 SE 13 19 1010.2 - 0.0 - Partly cloudy 10 - - - -
23/12:30pm 29.9 ESE 13 20 1010.7 - 0.0 - Partly cloudy 10 - - - -
23/12:00pm 29.3 E 11 14 1011.3 - 0.0 - - 10 - - - -
23/11:30am 28.5 SE 10 15 1012.1 - 0.0 - Partly cloudy 10 - - - -
23/11:00am 27.8 ESE 11 16 1012.5 - 0.0 - Partly cloudy 10 - - - -
23/10:30am 26.9 SE 7 12 1012.7 - 0.0 - Partly cloudy 10 - - - -
23/10:00am 26.0 SE 7 11 1012.9 - 0.0 - Partly cloudy 10 - - - -
23/09:30am 25.7 SE 7 11 1012.8 - 0.0 - Partly cloudy 10 - - - -
23/09:00am 25.8 SE 8 13 1012.3 - 0.0 - Partly cloudy 10 - - - -
23/08:30am 25.6 SE 9 14 1012.1 - 0.0 - Partly cloudy 10 - - - -
23/08:00am 25.2 SE 6 10 1011.6 - 0.0 - - 10 - - - -
23/07:30am 24.7 SE 5 8 1011.1 - 0.0 - Partly cloudy 10 - - - -
23/07:00am 24.2 SE 4 6 1010.8 - 0.0 - Partly cloudy 10 - - - -
23/06:30am 24.1 SSE 3 4 1010.4 - 0.0 - Partly cloudy 10 - - - -
23/06:00am 24.3 SE 4 6 1009.9 - 0.0 - Cloudy 10 - - - -
23/05:30am 24.2 SSE 3 6 1010.0 - 0.0 - Cloudy 10 - - - -
23/05:00am 24.2 SSE 3 4 1010.0 - 0.0 - Partly cloudy 10 - - - -
23/04:30am 24.3 SE 4 7 1009.6 - 0.0 - - 10 - - - -
23/04:00am 24.2 SE 3 5 1009.7 - 0.0 - Partly cloudy 10 - - - -
23/03:30am 24.6 SE 5 8 1009.9 - 0.0 - - 10 - - - -
23/03:00am 24.5 ESE 5 6 1010.2 - 0.0 - Cloudy 10 - - - -
23/02:30am 24.5 SE 4 7 1010.4 - 0.0 - Partly cloudy 10 - - - -
23/02:00am 24.3 ESE 4 5 1010.7 - 0.0 - - 10 - - - -
23/01:30am 24.6 SE 3 6 1010.8 - 0.0 - - 10 - - - -
23/01:00am 24.6 SE 5 6 1011.1 - 0.0 - - 10 - - - -
23/12:30am 24.8 SE 5 7 1011.6 - 0.0 - - 10 - - - -
23/12:00am 24.8 ESE 5 8 1011.7 - 0.0 - - 10 - - - -
 
Date/Time
EST
Temp
°C
Wind Pressure Rain since
9am
mm
Weather Cloud Vis
km
Sea
Height
m
Swell
Dir  Spd
kts
Gust
kts
hPa Trend Height
m
Period
s
Dir
22/11:30pm 25.0 ESE 7 10 1011.8 - 0.0 - - 10 - - - -
22/11:00pm 25.0 SE 6 8 1011.7 - 0.0 - - 10 - - - -
22/10:30pm 25.1 ESE 6 8 1011.6 - 0.0 - - 10 - - - -
22/10:00pm 25.1 SE 4 6 1011.8 - 0.0 - - 10 - - - -
22/09:30pm 25.2 ESE 6 9 1011.9 - 0.0 - Partly cloudy 10 - - - -
22/09:00pm 25.7 ESE 7 11 1011.7 - 0.0 - - 10 - - - -
22/08:30pm 25.6 ESE 7 10 1011.4 - 0.0 - - 10 - - - -
22/08:00pm 25.5 ESE 7 10 1011.1 - 0.0 - - 10 - - - -
22/07:30pm 25.8 ESE 9 12 1010.7 - 0.0 - - 10 - - - -
22/07:00pm 25.6 SE 8 13 1010.4 - 0.0 - Partly cloudy 10 - - - -
22/06:30pm 26.2 ESE 7 13 1010.5 - 0.0 - Partly cloudy 10 - - - -
22/06:00pm 26.1 ESE 5 7 1009.9 - 0.0 - Cloudy 10 - - - -
22/05:42pm 26.2 SE 6 9 1009.9 - 0.0 - Partly cloudy 10 - - - -
22/05:30pm 26.1 SE 10 17 1009.9 - 0.0 - Partly cloudy 6 - - - -
22/05:28pm 25.9 SE 10 17 1009.9 - 0.0 - Partly cloudy 6 - - - -
22/05:00pm 27.9 SE 6 10 1009.4 - 0.0 - Partly cloudy 10 - - - -

Other Formats:

Comma delimited format used in spreadsheet applications
http://www.bom.gov.au/fwo/IDQ60701/IDQ60701.94170.axf

JavaScript Object Notation format (JSON) in row-major order
http://www.bom.gov.au/fwo/IDQ60701/IDQ60701.94170.json